sensor_id;sensor_type;location;lat;lon;timestamp;temperature;humidity
48998;DHT22;34807;51.456;7.244;2023-02-28T00:00:12;2.30;96.90
48998;DHT22;34807;51.456;7.244;2023-02-28T00:02:39;2.30;96.90
48998;DHT22;34807;51.456;7.244;2023-02-28T00:05:05;2.20;96.90
48998;DHT22;34807;51.456;7.244;2023-02-28T00:07:31;2.20;96.80
48998;DHT22;34807;51.456;7.244;2023-02-28T00:09:57;2.20;96.80
48998;DHT22;34807;51.456;7.244;2023-02-28T00:12:23;2.20;96.80
48998;DHT22;34807;51.456;7.244;2023-02-28T00:14:48;2.20;96.80
48998;DHT22;34807;51.456;7.244;2023-02-28T00:17:14;2.20;96.80
48998;DHT22;34807;51.456;7.244;2023-02-28T00:19:39;2.20;96.70
48998;DHT22;34807;51.456;7.244;2023-02-28T00:22:05;2.20;96.80
48998;DHT22;34807;51.456;7.244;2023-02-28T00:24:30;2.20;96.70
48998;DHT22;34807;51.456;7.244;2023-02-28T00:26:56;2.20;96.70
48998;DHT22;34807;51.456;7.244;2023-02-28T00:29:21;2.20;96.70
48998;DHT22;34807;51.456;7.244;2023-02-28T00:31:47;2.10;96.70
48998;DHT22;34807;51.456;7.244;2023-02-28T00:34:12;2.10;96.70
48998;DHT22;34807;51.456;7.244;2023-02-28T00:36:38;2.10;96.70
48998;DHT22;34807;51.456;7.244;2023-02-28T00:39:04;2.10;96.70
48998;DHT22;34807;51.456;7.244;2023-02-28T00:41:29;2.10;96.70
48998;DHT22;34807;51.456;7.244;2023-02-28T00:43:55;2.10;96.60
48998;DHT22;34807;51.456;7.244;2023-02-28T00:46:20;2.10;96.60
48998;DHT22;34807;51.456;7.244;2023-02-28T00:48:46;2.10;96.70
48998;DHT22;34807;51.456;7.244;2023-02-28T00:51:11;2.10;96.70
48998;DHT22;34807;51.456;7.244;2023-02-28T00:53:37;2.10;96.70
48998;DHT22;34807;51.456;7.244;2023-02-28T00:56:02;2.00;96.70
48998;DHT22;34807;51.456;7.244;2023-02-28T00:58:28;2.00;96.60
48998;DHT22;34807;51.456;7.244;2023-02-28T01:00:54;2.00;96.60
48998;DHT22;34807;51.456;7.244;2023-02-28T01:03:20;2.00;96.60
48998;DHT22;34807;51.456;7.244;2023-02-28T01:05:46;2.00;96.60
48998;DHT22;34807;51.456;7.244;2023-02-28T01:08:11;2.00;96.60
48998;DHT22;34807;51.456;7.244;2023-02-28T01:10:37;2.00;96.60
48998;DHT22;34807;51.456;7.244;2023-02-28T01:13:03;2.00;96.70
48998;DHT22;34807;51.456;7.244;2023-02-28T01:15:29;1.90;96.60
48998;DHT22;34807;51.456;7.244;2023-02-28T01:17:54;1.90;96.60
48998;DHT22;34807;51.456;7.244;2023-02-28T01:20:20;1.90;96.60
48998;DHT22;34807;51.456;7.244;2023-02-28T01:22:45;1.90;96.60
48998;DHT22;34807;51.456;7.244;2023-02-28T01:25:11;1.90;96.60
48998;DHT22;34807;51.456;7.244;2023-02-28T01:27:37;1.90;96.60
48998;DHT22;34807;51.456;7.244;2023-02-28T01:30:05;1.90;96.60
48998;DHT22;34807;51.456;7.244;2023-02-28T01:32:30;1.90;96.60
48998;DHT22;34807;51.456;7.244;2023-02-28T01:34:56;1.80;96.60
48998;DHT22;34807;51.456;7.244;2023-02-28T01:37:21;1.80;96.60
48998;DHT22;34807;51.456;7.244;2023-02-28T01:39:47;1.80;96.50
48998;DHT22;34807;51.456;7.244;2023-02-28T01:42:12;1.80;96.50
48998;DHT22;34807;51.456;7.244;2023-02-28T01:47:19;1.80;96.50
48998;DHT22;34807;51.456;7.244;2023-02-28T01:49:45;1.80;96.50
48998;DHT22;34807;51.456;7.244;2023-02-28T01:52:10;1.80;96.50
48998;DHT22;34807;51.456;7.244;2023-02-28T01:54:40;1.80;96.60
48998;DHT22;34807;51.456;7.244;2023-02-28T01:57:07;1.80;96.50
48998;DHT22;34807;51.456;7.244;2023-02-28T02:02:01;1.70;96.50
48998;DHT22;34807;51.456;7.244;2023-02-28T02:04:27;1.70;96.50
48998;DHT22;34807;51.456;7.244;2023-02-28T02:06:56;1.70;96.50
48998;DHT22;34807;51.456;7.244;2023-02-28T02:09:23;1.70;96.80
48998;DHT22;34807;51.456;7.244;2023-02-28T02:11:48;1.70;96.80
48998;DHT22;34807;51.456;7.244;2023-02-28T02:14:18;1.70;96.50
48998;DHT22;34807;51.456;7.244;2023-02-28T02:17:01;1.70;96.50
48998;DHT22;34807;51.456;7.244;2023-02-28T02:27:48;1.60;96.40
48998;DHT22;34807;51.456;7.244;2023-02-28T02:30:32;1.60;96.40
48998;DHT22;34807;51.456;7.244;2023-02-28T02:40:50;1.60;96.40
48998;DHT22;34807;51.456;7.244;2023-02-28T02:43:19;1.50;96.40
48998;DHT22;34807;51.456;7.244;2023-02-28T02:45:50;1.60;96.40
48998;DHT22;34807;51.456;7.244;2023-02-28T02:48:18;1.50;96.30
48998;DHT22;34807;51.456;7.244;2023-02-28T02:50:46;1.50;96.40
48998;DHT22;34807;51.456;7.244;2023-02-28T02:53:14;1.50;96.60
48998;DHT22;34807;51.456;7.244;2023-02-28T02:55:41;1.50;96.40
48998;DHT22;34807;51.456;7.244;2023-02-28T02:58:10;1.50;96.40
48998;DHT22;34807;51.456;7.244;2023-02-28T03:00:37;1.50;96.40
48998;DHT22;34807;51.456;7.244;2023-02-28T03:03:04;1.50;96.40
48998;DHT22;34807;51.456;7.244;2023-02-28T03:05:33;1.50;96.40
48998;DHT22;34807;51.456;7.244;2023-02-28T03:07:59;1.50;96.40
48998;DHT22;34807;51.456;7.244;2023-02-28T03:10:36;1.40;96.40
48998;DHT22;34807;51.456;7.244;2023-02-28T03:18:22;1.40;96.30
48998;DHT22;34807;51.456;7.244;2023-02-28T03:26:19;1.40;96.30
48998;DHT22;34807;51.456;7.244;2023-02-28T03:31:21;1.40;96.30
48998;DHT22;34807;51.456;7.244;2023-02-28T03:34:32;1.40;96.30
48998;DHT22;34807;51.456;7.244;2023-02-28T03:36:45;1.30;96.20
48998;DHT22;34807;51.456;7.244;2023-02-28T03:39:14;1.30;96.20
48998;DHT22;34807;51.456;7.244;2023-02-28T03:41:54;1.30;96.20
48998;DHT22;34807;51.456;7.244;2023-02-28T03:44:24;1.30;96.20
48998;DHT22;34807;51.456;7.244;2023-02-28T03:46:56;1.30;96.20
48998;DHT22;34807;51.456;7.244;2023-02-28T03:49:32;1.30;96.20
48998;DHT22;34807;51.456;7.244;2023-02-28T03:52:00;1.30;96.20
48998;DHT22;34807;51.456;7.244;2023-02-28T03:54:28;1.30;96.20
48998;DHT22;34807;51.456;7.244;2023-02-28T03:57:06;1.20;96.20
48998;DHT22;34807;51.456;7.244;2023-02-28T04:01:59;1.20;96.20
48998;DHT22;34807;51.456;7.244;2023-02-28T04:04:25;1.20;96.20
48998;DHT22;34807;51.456;7.244;2023-02-28T04:06:51;1.20;96.20
48998;DHT22;34807;51.456;7.244;2023-02-28T04:09:17;1.20;96.10
48998;DHT22;34807;51.456;7.244;2023-02-28T04:11:44;1.20;96.10
48998;DHT22;34807;51.456;7.244;2023-02-28T04:14:10;1.20;96.10
48998;DHT22;34807;51.456;7.244;2023-02-28T04:16:37;1.20;96.10
48998;DHT22;34807;51.456;7.244;2023-02-28T04:19:04;1.20;96.20
48998;DHT22;34807;51.456;7.244;2023-02-28T04:21:31;1.20;96.10
48998;DHT22;34807;51.456;7.244;2023-02-28T04:23:58;1.20;96.10
48998;DHT22;34807;51.456;7.244;2023-02-28T04:26:29;1.10;96.10
48998;DHT22;34807;51.456;7.244;2023-02-28T04:28:55;1.10;96.00
48998;DHT22;34807;51.456;7.244;2023-02-28T04:31:21;1.10;96.10
48998;DHT22;34807;51.456;7.244;2023-02-28T04:33:46;1.10;96.10
48998;DHT22;34807;51.456;7.244;2023-02-28T04:36:12;1.10;96.10
48998;DHT22;34807;51.456;7.244;2023-02-28T04:38:39;1.10;96.10
48998;DHT22;34807;51.456;7.244;2023-02-28T04:41:05;1.10;96.10
48998;DHT22;34807;51.456;7.244;2023-02-28T04:43:31;1.10;96.00
48998;DHT22;34807;51.456;7.244;2023-02-28T04:45:57;1.10;96.10
48998;DHT22;34807;51.456;7.244;2023-02-28T04:48:24;1.00;96.10
48998;DHT22;34807;51.456;7.244;2023-02-28T04:50:50;1.10;96.00
48998;DHT22;34807;51.456;7.244;2023-02-28T04:53:15;1.00;96.10
48998;DHT22;34807;51.456;7.244;2023-02-28T04:55:41;1.00;96.10
48998;DHT22;34807;51.456;7.244;2023-02-28T04:58:06;1.00;96.00
48998;DHT22;34807;51.456;7.244;2023-02-28T05:00:32;1.00;96.00
48998;DHT22;34807;51.456;7.244;2023-02-28T05:02:57;1.00;96.00
48998;DHT22;34807;51.456;7.244;2023-02-28T05:05:23;1.00;96.00
48998;DHT22;34807;51.456;7.244;2023-02-28T05:07:48;1.00;96.00
48998;DHT22;34807;51.456;7.244;2023-02-28T05:10:14;1.00;96.00
48998;DHT22;34807;51.456;7.244;2023-02-28T05:12:40;1.00;96.00
48998;DHT22;34807;51.456;7.244;2023-02-28T05:15:05;1.00;96.00
48998;DHT22;34807;51.456;7.244;2023-02-28T05:17:31;1.00;96.00
48998;DHT22;34807;51.456;7.244;2023-02-28T05:19:56;1.00;96.00
48998;DHT22;34807;51.456;7.244;2023-02-28T05:22:22;1.00;96.00
48998;DHT22;34807;51.456;7.244;2023-02-28T05:24:47;0.90;95.90
48998;DHT22;34807;51.456;7.244;2023-02-28T05:27:13;0.90;95.90
48998;DHT22;34807;51.456;7.244;2023-02-28T05:29:38;0.90;95.90
48998;DHT22;34807;51.456;7.244;2023-02-28T05:32:10;0.90;95.90
48998;DHT22;34807;51.456;7.244;2023-02-28T05:34:36;0.90;95.90
48998;DHT22;34807;51.456;7.244;2023-02-28T05:37:02;0.90;95.90
48998;DHT22;34807;51.456;7.244;2023-02-28T05:39:27;0.90;95.90
48998;DHT22;34807;51.456;7.244;2023-02-28T05:41:53;0.90;95.90
48998;DHT22;34807;51.456;7.244;2023-02-28T05:44:18;0.90;95.90
48998;DHT22;34807;51.456;7.244;2023-02-28T05:46:44;0.90;95.90
48998;DHT22;34807;51.456;7.244;2023-02-28T05:49:09;0.90;95.90
48998;DHT22;34807;51.456;7.244;2023-02-28T05:51:35;0.90;96.00
48998;DHT22;34807;51.456;7.244;2023-02-28T05:54:01;0.90;95.90
48998;DHT22;34807;51.456;7.244;2023-02-28T05:56:27;0.80;95.90
48998;DHT22;34807;51.456;7.244;2023-02-28T05:58:52;0.80;95.90
48998;DHT22;34807;51.456;7.244;2023-02-28T06:01:19;0.80;95.90
48998;DHT22;34807;51.456;7.244;2023-02-28T06:03:45;0.80;95.90
48998;DHT22;34807;51.456;7.244;2023-02-28T06:06:10;0.80;95.90
48998;DHT22;34807;51.456;7.244;2023-02-28T06:08:36;0.80;95.90
48998;DHT22;34807;51.456;7.244;2023-02-28T06:11:04;0.80;95.90
48998;DHT22;34807;51.456;7.244;2023-02-28T06:13:31;0.80;95.90
48998;DHT22;34807;51.456;7.244;2023-02-28T06:16:00;0.80;95.90
48998;DHT22;34807;51.456;7.244;2023-02-28T06:18:25;0.80;95.80
48998;DHT22;34807;51.456;7.244;2023-02-28T06:20:54;0.80;95.80
48998;DHT22;34807;51.456;7.244;2023-02-28T06:23:20;0.70;95.80
48998;DHT22;34807;51.456;7.244;2023-02-28T06:25:46;0.80;95.90
48998;DHT22;34807;51.456;7.244;2023-02-28T06:28:11;0.70;95.90
48998;DHT22;34807;51.456;7.244;2023-02-28T06:30:37;0.80;95.90
48998;DHT22;34807;51.456;7.244;2023-02-28T06:33:03;0.70;95.80
48998;DHT22;34807;51.456;7.244;2023-02-28T06:35:28;0.80;95.80
48998;DHT22;34807;51.456;7.244;2023-02-28T06:37:54;0.70;95.80
48998;DHT22;34807;51.456;7.244;2023-02-28T06:40:20;0.70;95.80
48998;DHT22;34807;51.456;7.244;2023-02-28T06:42:45;0.70;95.80
48998;DHT22;34807;51.456;7.244;2023-02-28T06:45:11;0.70;95.80
48998;DHT22;34807;51.456;7.244;2023-02-28T06:47:38;0.70;95.70
48998;DHT22;34807;51.456;7.244;2023-02-28T06:50:04;0.70;95.70
48998;DHT22;34807;51.456;7.244;2023-02-28T06:52:30;0.70;95.70
48998;DHT22;34807;51.456;7.244;2023-02-28T06:54:55;0.70;95.70
48998;DHT22;34807;51.456;7.244;2023-02-28T06:57:27;0.70;95.80
48998;DHT22;34807;51.456;7.244;2023-02-28T06:59:52;0.70;95.80
48998;DHT22;34807;51.456;7.244;2023-02-28T07:02:18;0.70;95.70
48998;DHT22;34807;51.456;7.244;2023-02-28T07:04:43;0.70;95.80
48998;DHT22;34807;51.456;7.244;2023-02-28T07:07:09;0.70;95.70
48998;DHT22;34807;51.456;7.244;2023-02-28T07:09:35;0.70;95.70
48998;DHT22;34807;51.456;7.244;2023-02-28T07:12:01;0.70;95.70
48998;DHT22;34807;51.456;7.244;2023-02-28T07:14:26;0.70;95.70
48998;DHT22;34807;51.456;7.244;2023-02-28T07:16:51;0.70;95.80
48998;DHT22;34807;51.456;7.244;2023-02-28T07:19:17;0.80;95.70
48998;DHT22;34807;51.456;7.244;2023-02-28T07:21:42;0.80;95.80
48998;DHT22;34807;51.456;7.244;2023-02-28T07:24:08;0.80;95.70
48998;DHT22;34807;51.456;7.244;2023-02-28T07:26:33;0.80;95.70
48998;DHT22;34807;51.456;7.244;2023-02-28T07:28:59;0.80;95.60
48998;DHT22;34807;51.456;7.244;2023-02-28T07:31:24;0.80;95.60
48998;DHT22;34807;51.456;7.244;2023-02-28T07:33:50;0.80;95.60
48998;DHT22;34807;51.456;7.244;2023-02-28T07:36:16;0.80;95.60
48998;DHT22;34807;51.456;7.244;2023-02-28T07:38:44;0.80;95.60
48998;DHT22;34807;51.456;7.244;2023-02-28T07:41:10;0.80;95.50
48998;DHT22;34807;51.456;7.244;2023-02-28T07:43:35;0.80;95.60
48998;DHT22;34807;51.456;7.244;2023-02-28T07:46:05;0.80;95.60
48998;DHT22;34807;51.456;7.244;2023-02-28T07:48:31;0.80;95.60
48998;DHT22;34807;51.456;7.244;2023-02-28T07:50:57;0.80;95.60
48998;DHT22;34807;51.456;7.244;2023-02-28T07:53:22;0.80;95.60
48998;DHT22;34807;51.456;7.244;2023-02-28T07:55:48;0.80;95.60
48998;DHT22;34807;51.456;7.244;2023-02-28T07:58:14;0.90;95.60
48998;DHT22;34807;51.456;7.244;2023-02-28T08:00:39;0.90;95.60
48998;DHT22;34807;51.456;7.244;2023-02-28T08:03:05;0.90;95.60
48998;DHT22;34807;51.456;7.244;2023-02-28T08:05:31;0.90;95.50
48998;DHT22;34807;51.456;7.244;2023-02-28T08:07:57;0.90;95.50
48998;DHT22;34807;51.456;7.244;2023-02-28T08:10:22;1.00;95.50
48998;DHT22;34807;51.456;7.244;2023-02-28T08:12:49;1.00;95.60
48998;DHT22;34807;51.456;7.244;2023-02-28T08:15:14;1.00;95.60
48998;DHT22;34807;51.456;7.244;2023-02-28T08:17:40;1.00;95.50
48998;DHT22;34807;51.456;7.244;2023-02-28T08:20:05;1.00;95.60
48998;DHT22;34807;51.456;7.244;2023-02-28T08:22:31;1.00;95.70
48998;DHT22;34807;51.456;7.244;2023-02-28T08:24:57;1.10;95.70
48998;DHT22;34807;51.456;7.244;2023-02-28T08:27:22;1.10;95.60
48998;DHT22;34807;51.456;7.244;2023-02-28T08:29:48;1.10;95.60
48998;DHT22;34807;51.456;7.244;2023-02-28T08:32:13;1.10;95.60
48998;DHT22;34807;51.456;7.244;2023-02-28T08:34:39;1.10;95.60
48998;DHT22;34807;51.456;7.244;2023-02-28T08:37:05;1.10;95.60
48998;DHT22;34807;51.456;7.244;2023-02-28T08:39:33;1.20;95.50
48998;DHT22;34807;51.456;7.244;2023-02-28T08:41:58;1.20;95.50
48998;DHT22;34807;51.456;7.244;2023-02-28T08:44:24;1.30;95.40
48998;DHT22;34807;51.456;7.244;2023-02-28T08:46:49;1.30;95.50
48998;DHT22;34807;51.456;7.244;2023-02-28T08:49:15;1.30;95.60
48998;DHT22;34807;51.456;7.244;2023-02-28T08:51:41;1.30;95.60
48998;DHT22;34807;51.456;7.244;2023-02-28T08:54:07;1.20;95.60
48998;DHT22;34807;51.456;7.244;2023-02-28T08:56:33;1.30;95.60
48998;DHT22;34807;51.456;7.244;2023-02-28T08:58:59;1.30;95.50
48998;DHT22;34807;51.456;7.244;2023-02-28T09:01:27;1.30;95.40
48998;DHT22;34807;51.456;7.244;2023-02-28T09:03:54;1.30;95.50
48998;DHT22;34807;51.456;7.244;2023-02-28T09:06:21;1.40;95.60
48998;DHT22;34807;51.456;7.244;2023-02-28T09:08:46;1.40;95.50
48998;DHT22;34807;51.456;7.244;2023-02-28T09:11:12;1.50;95.40
48998;DHT22;34807;51.456;7.244;2023-02-28T09:13:38;1.50;95.30
48998;DHT22;34807;51.456;7.244;2023-02-28T09:16:04;1.50;95.30
48998;DHT22;34807;51.456;7.244;2023-02-28T09:18:30;1.50;95.60
48998;DHT22;34807;51.456;7.244;2023-02-28T09:20:56;1.60;95.50
48998;DHT22;34807;51.456;7.244;2023-02-28T09:23:23;1.60;95.40
48998;DHT22;34807;51.456;7.244;2023-02-28T09:25:49;1.70;95.40
48998;DHT22;34807;51.456;7.244;2023-02-28T09:28:15;1.70;95.40
48998;DHT22;34807;51.456;7.244;2023-02-28T09:30:42;1.70;95.40
48998;DHT22;34807;51.456;7.244;2023-02-28T09:33:08;1.70;95.30
48998;DHT22;34807;51.456;7.244;2023-02-28T09:35:34;1.80;95.30
48998;DHT22;34807;51.456;7.244;2023-02-28T09:37:59;1.80;95.40
48998;DHT22;34807;51.456;7.244;2023-02-28T09:40:27;1.80;95.50
48998;DHT22;34807;51.456;7.244;2023-02-28T09:42:54;1.80;95.40
48998;DHT22;34807;51.456;7.244;2023-02-28T09:45:28;1.80;95.40
48998;DHT22;34807;51.456;7.244;2023-02-28T09:47:55;1.80;95.50
48998;DHT22;34807;51.456;7.244;2023-02-28T09:50:35;1.80;95.50
48998;DHT22;34807;51.456;7.244;2023-02-28T09:53:02;1.80;95.50
48998;DHT22;34807;51.456;7.244;2023-02-28T09:57:54;1.80;95.60
48998;DHT22;34807;51.456;7.244;2023-02-28T10:00:26;1.80;95.60
48998;DHT22;34807;51.456;7.244;2023-02-28T10:10:44;1.90;95.50
48998;DHT22;34807;51.456;7.244;2023-02-28T10:15:50;1.90;95.50
48998;DHT22;34807;51.456;7.244;2023-02-28T10:18:18;1.90;95.50
48998;DHT22;34807;51.456;7.244;2023-02-28T10:20:46;1.90;95.50
48998;DHT22;34807;51.456;7.244;2023-02-28T10:23:14;1.90;95.70
48998;DHT22;34807;51.456;7.244;2023-02-28T10:25:42;1.90;95.60
48998;DHT22;34807;51.456;7.244;2023-02-28T10:28:14;1.90;95.60
48998;DHT22;34807;51.456;7.244;2023-02-28T10:30:41;2.00;95.50
48998;DHT22;34807;51.456;7.244;2023-02-28T10:33:11;2.00;95.30
48998;DHT22;34807;51.456;7.244;2023-02-28T10:35:43;2.10;95.40
48998;DHT22;34807;51.456;7.244;2023-02-28T10:38:11;2.10;95.40
48998;DHT22;34807;51.456;7.244;2023-02-28T10:40:39;2.10;95.30
48998;DHT22;34807;51.456;7.244;2023-02-28T10:43:26;2.10;95.40
48998;DHT22;34807;51.456;7.244;2023-02-28T10:46:13;2.20;95.30
48998;DHT22;34807;51.456;7.244;2023-02-28T10:48:48;2.10;95.60
48998;DHT22;34807;51.456;7.244;2023-02-28T10:51:16;2.20;95.40
48998;DHT22;34807;51.456;7.244;2023-02-28T10:58:48;2.30;95.40
48998;DHT22;34807;51.456;7.244;2023-02-28T11:01:36;2.30;95.40
48998;DHT22;34807;51.456;7.244;2023-02-28T11:04:00;2.30;95.40
48998;DHT22;34807;51.456;7.244;2023-02-28T11:06:26;2.40;95.30
48998;DHT22;34807;51.456;7.244;2023-02-28T11:08:54;2.40;95.30
48998;DHT22;34807;51.456;7.244;2023-02-28T11:11:21;2.50;95.40
48998;DHT22;34807;51.456;7.244;2023-02-28T11:13:50;2.60;95.20
48998;DHT22;34807;51.456;7.244;2023-02-28T11:16:17;2.70;95.10
48998;DHT22;34807;51.456;7.244;2023-02-28T11:18:55;2.70;94.90
48998;DHT22;34807;51.456;7.244;2023-02-28T11:21:25;2.80;94.80
48998;DHT22;34807;51.456;7.244;2023-02-28T11:23:52;2.90;95.00
48998;DHT22;34807;51.456;7.244;2023-02-28T11:26:37;2.90;94.50
48998;DHT22;34807;51.456;7.244;2023-02-28T11:29:08;3.00;94.70
48998;DHT22;34807;51.456;7.244;2023-02-28T11:31:34;3.00;94.80
48998;DHT22;34807;51.456;7.244;2023-02-28T11:33:59;3.10;94.70
48998;DHT22;34807;51.456;7.244;2023-02-28T11:36:26;3.10;94.80
48998;DHT22;34807;51.456;7.244;2023-02-28T11:38:56;3.10;95.20
48998;DHT22;34807;51.456;7.244;2023-02-28T11:46:52;3.30;94.80
48998;DHT22;34807;51.456;7.244;2023-02-28T11:51:50;3.50;94.40
48998;DHT22;34807;51.456;7.244;2023-02-28T11:54:28;3.60;94.50
48998;DHT22;34807;51.456;7.244;2023-02-28T12:00:06;3.80;94.50
48998;DHT22;34807;51.456;7.244;2023-02-28T12:05:14;3.90;94.20
48998;DHT22;34807;51.456;7.244;2023-02-28T12:10:24;4.10;94.00
48998;DHT22;34807;51.456;7.244;2023-02-28T12:12:57;4.20;93.90
48998;DHT22;34807;51.456;7.244;2023-02-28T12:15:25;4.30;93.80
48998;DHT22;34807;51.456;7.244;2023-02-28T12:17:56;4.40;93.90
48998;DHT22;34807;51.456;7.244;2023-02-28T12:28:01;4.60;93.70
48998;DHT22;34807;51.456;7.244;2023-02-28T12:30:31;4.60;93.60
48998;DHT22;34807;51.456;7.244;2023-02-28T12:35:43;4.70;93.40
48998;DHT22;34807;51.456;7.244;2023-02-28T12:38:19;4.80;93.60
48998;DHT22;34807;51.456;7.244;2023-02-28T12:40:52;4.80;93.70
48998;DHT22;34807;51.456;7.244;2023-02-28T12:43:19;4.90;93.40
48998;DHT22;34807;51.456;7.244;2023-02-28T12:45:47;4.90;93.90
48998;DHT22;34807;51.456;7.244;2023-02-28T12:48:21;4.90;94.00
48998;DHT22;34807;51.456;7.244;2023-02-28T12:50:49;5.00;94.50
48998;DHT22;34807;51.456;7.244;2023-02-28T12:53:32;5.00;94.50
48998;DHT22;34807;51.456;7.244;2023-02-28T12:56:04;5.00;94.40
48998;DHT22;34807;51.456;7.244;2023-02-28T12:58:33;5.10;94.20
48998;DHT22;34807;51.456;7.244;2023-02-28T13:01:14;5.20;94.60
48998;DHT22;34807;51.456;7.244;2023-02-28T13:06:52;5.30;94.60
48998;DHT22;34807;51.456;7.244;2023-02-28T13:09:21;5.20;94.60
48998;DHT22;34807;51.456;7.244;2023-02-28T13:11:51;5.30;95.00
48998;DHT22;34807;51.456;7.244;2023-02-28T13:19:21;5.40;95.50
48998;DHT22;34807;51.456;7.244;2023-02-28T13:21:48;5.40;95.60
48998;DHT22;34807;51.456;7.244;2023-02-28T13:29:35;5.50;95.50
48998;DHT22;34807;51.456;7.244;2023-02-28T13:39:47;5.60;95.60
48998;DHT22;34807;51.456;7.244;2023-02-28T13:47:28;5.60;96.40
48998;DHT22;34807;51.456;7.244;2023-02-28T13:50:14;5.60;96.40
48998;DHT22;34807;51.456;7.244;2023-02-28T13:55:31;5.70;96.40
48998;DHT22;34807;51.456;7.244;2023-02-28T14:05:40;5.70;96.30
48998;DHT22;34807;51.456;7.244;2023-02-28T14:08:22;5.70;96.50
48998;DHT22;34807;51.456;7.244;2023-02-28T14:11:02;5.70;96.50
48998;DHT22;34807;51.456;7.244;2023-02-28T14:16:20;5.70;97.10
48998;DHT22;34807;51.456;7.244;2023-02-28T14:21:25;5.70;97.40
48998;DHT22;34807;51.456;7.244;2023-02-28T14:31:45;5.70;96.80
48998;DHT22;34807;51.456;7.244;2023-02-28T14:34:29;5.80;97.20
48998;DHT22;34807;51.456;7.244;2023-02-28T14:36:58;5.80;97.30
48998;DHT22;34807;51.456;7.244;2023-02-28T14:39:24;5.80;96.90
48998;DHT22;34807;51.456;7.244;2023-02-28T14:41:50;5.80;97.00
48998;DHT22;34807;51.456;7.244;2023-02-28T14:44:22;5.70;97.40
48998;DHT22;34807;51.456;7.244;2023-02-28T14:46:49;5.70;97.60
48998;DHT22;34807;51.456;7.244;2023-02-28T14:49:24;5.70;97.70
48998;DHT22;34807;51.456;7.244;2023-02-28T14:52:00;5.70;97.70
48998;DHT22;34807;51.456;7.244;2023-02-28T14:54:27;5.70;97.60
48998;DHT22;34807;51.456;7.244;2023-02-28T14:56:53;5.70;97.60
48998;DHT22;34807;51.456;7.244;2023-02-28T14:59:27;5.70;97.60
48998;DHT22;34807;51.456;7.244;2023-02-28T15:02:13;5.70;97.60
48998;DHT22;34807;51.456;7.244;2023-02-28T15:04:38;5.70;97.40
48998;DHT22;34807;51.456;7.244;2023-02-28T15:07:08;5.70;97.20
48998;DHT22;34807;51.456;7.244;2023-02-28T15:09:33;5.70;97.40
48998;DHT22;34807;51.456;7.244;2023-02-28T15:11:59;5.70;97.50
48998;DHT22;34807;51.456;7.244;2023-02-28T15:14:24;5.70;97.40
48998;DHT22;34807;51.456;7.244;2023-02-28T15:16:57;5.70;97.40
48998;DHT22;34807;51.456;7.244;2023-02-28T15:19:24;5.60;97.40
48998;DHT22;34807;51.456;7.244;2023-02-28T15:21:55;5.60;97.20
48998;DHT22;34807;51.456;7.244;2023-02-28T15:26:53;5.60;96.90
48998;DHT22;34807;51.456;7.244;2023-02-28T15:29:21;5.60;96.80
48998;DHT22;34807;51.456;7.244;2023-02-28T15:31:54;5.50;96.60
48998;DHT22;34807;51.456;7.244;2023-02-28T15:34:34;5.50;96.50
48998;DHT22;34807;51.456;7.244;2023-02-28T15:37:00;5.50;96.70
48998;DHT22;34807;51.456;7.244;2023-02-28T15:39:27;5.50;96.50
48998;DHT22;34807;51.456;7.244;2023-02-28T15:42:09;5.40;96.60
48998;DHT22;34807;51.456;7.244;2023-02-28T15:44:35;5.40;96.60
48998;DHT22;34807;51.456;7.244;2023-02-28T15:47:12;5.40;96.00
48998;DHT22;34807;51.456;7.244;2023-02-28T15:49:43;5.30;95.90
48998;DHT22;34807;51.456;7.244;2023-02-28T15:52:12;5.30;96.00
48998;DHT22;34807;51.456;7.244;2023-02-28T15:54:38;5.30;96.30
48998;DHT22;34807;51.456;7.244;2023-02-28T15:57:05;5.30;96.20
48998;DHT22;34807;51.456;7.244;2023-02-28T15:59:33;5.20;96.40
48998;DHT22;34807;51.456;7.244;2023-02-28T16:04:28;5.20;96.00
48998;DHT22;34807;51.456;7.244;2023-02-28T16:07:04;5.10;95.90
48998;DHT22;34807;51.456;7.244;2023-02-28T16:09:30;5.10;96.10
48998;DHT22;34807;51.456;7.244;2023-02-28T16:11:58;5.10;96.30
48998;DHT22;34807;51.456;7.244;2023-02-28T16:14:25;5.10;96.20
48998;DHT22;34807;51.456;7.244;2023-02-28T16:16:56;5.00;95.80
48998;DHT22;34807;51.456;7.244;2023-02-28T16:19:22;5.00;95.60
48998;DHT22;34807;51.456;7.244;2023-02-28T16:21:48;5.00;95.50
48998;DHT22;34807;51.456;7.244;2023-02-28T16:24:13;5.00;95.90
48998;DHT22;34807;51.456;7.244;2023-02-28T16:26:39;5.00;96.20
48998;DHT22;34807;51.456;7.244;2023-02-28T16:29:05;4.90;96.40
48998;DHT22;34807;51.456;7.244;2023-02-28T16:31:33;4.90;96.40
48998;DHT22;34807;51.456;7.244;2023-02-28T16:34:00;4.90;96.50
48998;DHT22;34807;51.456;7.244;2023-02-28T16:36:26;4.80;96.00
48998;DHT22;34807;51.456;7.244;2023-02-28T16:38:53;4.80;96.10
48998;DHT22;34807;51.456;7.244;2023-02-28T16:41:20;4.80;96.00
48998;DHT22;34807;51.456;7.244;2023-02-28T16:43:47;4.70;95.70
48998;DHT22;34807;51.456;7.244;2023-02-28T16:46:13;4.70;96.00
48998;DHT22;34807;51.456;7.244;2023-02-28T16:48:38;4.70;95.90
48998;DHT22;34807;51.456;7.244;2023-02-28T16:51:07;4.70;95.90
48998;DHT22;34807;51.456;7.244;2023-02-28T16:53:33;4.70;95.80
48998;DHT22;34807;51.456;7.244;2023-02-28T16:56:00;4.60;95.80
48998;DHT22;34807;51.456;7.244;2023-02-28T16:58:27;4.60;96.00
48998;DHT22;34807;51.456;7.244;2023-02-28T17:00:52;4.60;96.00
48998;DHT22;34807;51.456;7.244;2023-02-28T17:03:23;4.50;96.10
48998;DHT22;34807;51.456;7.244;2023-02-28T17:05:49;4.50;95.80
48998;DHT22;34807;51.456;7.244;2023-02-28T17:08:14;4.50;95.70
48998;DHT22;34807;51.456;7.244;2023-02-28T17:10:40;4.40;95.80
48998;DHT22;34807;51.456;7.244;2023-02-28T17:13:06;4.40;96.00
48998;DHT22;34807;51.456;7.244;2023-02-28T17:15:33;4.40;96.00
48998;DHT22;34807;51.456;7.244;2023-02-28T17:17:58;4.30;95.80
48998;DHT22;34807;51.456;7.244;2023-02-28T17:20:24;4.30;95.80
48998;DHT22;34807;51.456;7.244;2023-02-28T17:22:52;4.30;96.00
48998;DHT22;34807;51.456;7.244;2023-02-28T17:25:17;4.30;96.10
48998;DHT22;34807;51.456;7.244;2023-02-28T17:27:43;4.20;96.20
48998;DHT22;34807;51.456;7.244;2023-02-28T17:32:35;4.20;96.20
48998;DHT22;34807;51.456;7.244;2023-02-28T17:35:00;4.10;96.30
48998;DHT22;34807;51.456;7.244;2023-02-28T17:37:26;4.10;96.20
48998;DHT22;34807;51.456;7.244;2023-02-28T17:39:51;4.10;96.50
48998;DHT22;34807;51.456;7.244;2023-02-28T17:42:17;4.00;96.20
48998;DHT22;34807;51.456;7.244;2023-02-28T17:44:42;4.00;96.40
48998;DHT22;34807;51.456;7.244;2023-02-28T17:47:09;4.00;96.30
48998;DHT22;34807;51.456;7.244;2023-02-28T17:49:35;3.90;96.20
48998;DHT22;34807;51.456;7.244;2023-02-28T17:52:01;3.90;96.20
48998;DHT22;34807;51.456;7.244;2023-02-28T17:54:26;3.90;96.40
48998;DHT22;34807;51.456;7.244;2023-02-28T17:56:52;3.90;96.20
48998;DHT22;34807;51.456;7.244;2023-02-28T17:59:17;3.80;96.20
48998;DHT22;34807;51.456;7.244;2023-02-28T18:01:43;3.80;96.20
48998;DHT22;34807;51.456;7.244;2023-02-28T18:04:08;3.80;96.30
48998;DHT22;34807;51.456;7.244;2023-02-28T18:06:38;3.80;96.30